sensor_id;sensor_type;location;lat;lon;timestamp;temperature;humidity
62575;DHT22;53112;45.602;11.904;2022-07-29T00:00:54;27.70;53.50
62575;DHT22;53112;45.602;11.904;2022-07-29T00:03:20;27.80;53.40
62575;DHT22;53112;45.602;11.904;2022-07-29T00:05:46;27.80;53.50
62575;DHT22;53112;45.602;11.904;2022-07-29T00:08:12;27.80;52.20
62575;DHT22;53112;45.602;11.904;2022-07-29T00:10:38;27.90;50.50
62575;DHT22;53112;45.602;11.904;2022-07-29T00:13:04;27.60;49.60
62575;DHT22;53112;45.602;11.904;2022-07-29T00:15:30;27.60;48.50
62575;DHT22;53112;45.602;11.904;2022-07-29T00:17:56;27.20;48.70
62575;DHT22;53112;45.602;11.904;2022-07-29T00:20:22;27.30;49.20
62575;DHT22;53112;45.602;11.904;2022-07-29T00:22:48;27.10;50.50
62575;DHT22;53112;45.602;11.904;2022-07-29T00:25:14;26.60;52.00
62575;DHT22;53112;45.602;11.904;2022-07-29T00:27:39;26.50;52.10
62575;DHT22;53112;45.602;11.904;2022-07-29T00:30:07;26.40;53.00
62575;DHT22;53112;45.602;11.904;2022-07-29T00:32:33;26.10;52.80
62575;DHT22;53112;45.602;11.904;2022-07-29T00:34:59;26.00;52.60
62575;DHT22;53112;45.602;11.904;2022-07-29T00:37:43;26.00;53.10
62575;DHT22;53112;45.602;11.904;2022-07-29T00:40:10;26.10;52.90
62575;DHT22;53112;45.602;11.904;2022-07-29T00:42:47;25.80;53.70
62575;DHT22;53112;45.602;11.904;2022-07-29T00:45:14;25.60;56.00
62575;DHT22;53112;45.602;11.904;2022-07-29T00:47:40;25.40;56.70
62575;DHT22;53112;45.602;11.904;2022-07-29T00:50:08;25.30;57.50
62575;DHT22;53112;45.602;11.904;2022-07-29T00:52:38;25.30;57.90
62575;DHT22;53112;45.602;11.904;2022-07-29T00:55:07;25.40;58.50
62575;DHT22;53112;45.602;11.904;2022-07-29T00:57:35;25.30;57.90
62575;DHT22;53112;45.602;11.904;2022-07-29T01:00:04;25.30;58.60
62575;DHT22;53112;45.602;11.904;2022-07-29T01:02:32;25.20;58.00
62575;DHT22;53112;45.602;11.904;2022-07-29T01:04:58;25.30;57.50
62575;DHT22;53112;45.602;11.904;2022-07-29T01:07:27;25.30;59.00
62575;DHT22;53112;45.602;11.904;2022-07-29T01:09:55;25.50;57.80
62575;DHT22;53112;45.602;11.904;2022-07-29T01:12:25;25.40;58.10
62575;DHT22;53112;45.602;11.904;2022-07-29T01:14:53;25.30;58.70
62575;DHT22;53112;45.602;11.904;2022-07-29T01:30:49;25.40;61.80
62575;DHT22;53112;45.602;11.904;2022-07-29T01:33:18;25.50;62.10
62575;DHT22;53112;45.602;11.904;2022-07-29T01:36:10;25.50;60.60
62575;DHT22;53112;45.602;11.904;2022-07-29T01:38:44;25.00;64.50
62575;DHT22;53112;45.602;11.904;2022-07-29T01:41:17;24.90;65.90
62575;DHT22;53112;45.602;11.904;2022-07-29T01:43:57;24.90;64.70
62575;DHT22;53112;45.602;11.904;2022-07-29T01:46:34;24.80;64.30
62575;DHT22;53112;45.602;11.904;2022-07-29T01:51:33;24.90;63.80
62575;DHT22;53112;45.602;11.904;2022-07-29T01:54:11;24.90;63.60
62575;DHT22;53112;45.602;11.904;2022-07-29T01:56:39;24.80;62.90
62575;DHT22;53112;45.602;11.904;2022-07-29T01:59:07;24.80;64.10
62575;DHT22;53112;45.602;11.904;2022-07-29T02:01:35;24.80;63.40
62575;DHT22;53112;45.602;11.904;2022-07-29T02:04:06;24.80;63.30
62575;DHT22;53112;45.602;11.904;2022-07-29T02:06:38;24.80;63.60
62575;DHT22;53112;45.602;11.904;2022-07-29T02:09:06;24.80;63.20
62575;DHT22;53112;45.602;11.904;2022-07-29T02:11:33;24.90;63.30
62575;DHT22;53112;45.602;11.904;2022-07-29T02:14:01;24.80;63.90
62575;DHT22;53112;45.602;11.904;2022-07-29T02:16:29;24.70;64.90
62575;DHT22;53112;45.602;11.904;2022-07-29T02:18:56;24.60;64.80
62575;DHT22;53112;45.602;11.904;2022-07-29T02:21:25;24.60;64.40
62575;DHT22;53112;45.602;11.904;2022-07-29T02:23:54;24.50;63.70
62575;DHT22;53112;45.602;11.904;2022-07-29T02:26:23;24.60;62.20
62575;DHT22;53112;45.602;11.904;2022-07-29T02:28:52;24.60;61.60
62575;DHT22;53112;45.602;11.904;2022-07-29T02:31:22;24.70;61.40
62575;DHT22;53112;45.602;11.904;2022-07-29T02:33:51;24.70;60.20
62575;DHT22;53112;45.602;11.904;2022-07-29T02:36:20;24.70;60.70
62575;DHT22;53112;45.602;11.904;2022-07-29T02:38:47;24.80;59.80
62575;DHT22;53112;45.602;11.904;2022-07-29T02:41:41;24.90;60.00
62575;DHT22;53112;45.602;11.904;2022-07-29T02:44:13;24.80;60.10
62575;DHT22;53112;45.602;11.904;2022-07-29T02:47:07;24.80;60.30
62575;DHT22;53112;45.602;11.904;2022-07-29T02:52:00;24.70;60.30
62575;DHT22;53112;45.602;11.904;2022-07-29T02:54:45;24.70;60.00
62575;DHT22;53112;45.602;11.904;2022-07-29T03:00:06;24.70;60.60
62575;DHT22;53112;45.602;11.904;2022-07-29T03:02:42;24.60;60.90
62575;DHT22;53112;45.602;11.904;2022-07-29T03:05:13;24.60;60.40
62575;DHT22;53112;45.602;11.904;2022-07-29T03:07:45;24.60;60.10
62575;DHT22;53112;45.602;11.904;2022-07-29T03:10:12;24.60;60.40
62575;DHT22;53112;45.602;11.904;2022-07-29T03:12:39;24.70;59.70
62575;DHT22;53112;45.602;11.904;2022-07-29T03:15:06;24.50;61.10
62575;DHT22;53112;45.602;11.904;2022-07-29T03:17:33;24.50;62.00
62575;DHT22;53112;45.602;11.904;2022-07-29T03:20:00;24.40;63.70
62575;DHT22;53112;45.602;11.904;2022-07-29T03:22:27;24.40;62.20
62575;DHT22;53112;45.602;11.904;2022-07-29T03:24:53;24.30;64.50
62575;DHT22;53112;45.602;11.904;2022-07-29T03:27:19;24.20;62.40
62575;DHT22;53112;45.602;11.904;2022-07-29T03:29:45;24.30;62.30
62575;DHT22;53112;45.602;11.904;2022-07-29T03:32:11;24.50;61.50
62575;DHT22;53112;45.602;11.904;2022-07-29T03:34:37;24.60;60.80
62575;DHT22;53112;45.602;11.904;2022-07-29T03:37:04;24.40;61.90
62575;DHT22;53112;45.602;11.904;2022-07-29T03:39:35;24.50;61.50
62575;DHT22;53112;45.602;11.904;2022-07-29T03:42:04;24.40;61.40
62575;DHT22;53112;45.602;11.904;2022-07-29T03:44:31;24.50;60.70
62575;DHT22;53112;45.602;11.904;2022-07-29T03:47:00;24.30;61.50
62575;DHT22;53112;45.602;11.904;2022-07-29T03:49:28;24.40;61.40
62575;DHT22;53112;45.602;11.904;2022-07-29T03:51:55;24.30;61.00
62575;DHT22;53112;45.602;11.904;2022-07-29T03:54:22;24.10;63.50
62575;DHT22;53112;45.602;11.904;2022-07-29T03:56:49;24.10;62.30
62575;DHT22;53112;45.602;11.904;2022-07-29T03:59:18;24.20;61.80
62575;DHT22;53112;45.602;11.904;2022-07-29T04:01:46;24.20;62.60
62575;DHT22;53112;45.602;11.904;2022-07-29T04:04:12;24.20;62.00
62575;DHT22;53112;45.602;11.904;2022-07-29T04:06:43;24.20;62.10
62575;DHT22;53112;45.602;11.904;2022-07-29T04:09:11;24.30;61.50
62575;DHT22;53112;45.602;11.904;2022-07-29T04:11:39;24.10;62.90
62575;DHT22;53112;45.602;11.904;2022-07-29T04:14:05;23.90;64.40
62575;DHT22;53112;45.602;11.904;2022-07-29T04:16:32;23.90;63.90
62575;DHT22;53112;45.602;11.904;2022-07-29T04:18:58;23.80;64.90
62575;DHT22;53112;45.602;11.904;2022-07-29T04:21:24;23.80;64.60
62575;DHT22;53112;45.602;11.904;2022-07-29T04:23:50;24.00;63.50
62575;DHT22;53112;45.602;11.904;2022-07-29T04:26:17;24.10;63.10
62575;DHT22;53112;45.602;11.904;2022-07-29T04:28:44;24.00;64.40
62575;DHT22;53112;45.602;11.904;2022-07-29T04:31:12;24.10;64.10
62575;DHT22;53112;45.602;11.904;2022-07-29T04:33:38;24.10;63.50
62575;DHT22;53112;45.602;11.904;2022-07-29T04:36:04;24.00;65.30
62575;DHT22;53112;45.602;11.904;2022-07-29T04:38:30;24.00;65.40
62575;DHT22;53112;45.602;11.904;2022-07-29T04:40:57;24.10;63.90
62575;DHT22;53112;45.602;11.904;2022-07-29T04:43:22;24.40;64.50
62575;DHT22;53112;45.602;11.904;2022-07-29T04:45:48;24.60;62.50
62575;DHT22;53112;45.602;11.904;2022-07-29T04:48:14;24.90;62.30
62575;DHT22;53112;45.602;11.904;2022-07-29T04:50:41;25.00;62.10
62575;DHT22;53112;45.602;11.904;2022-07-29T04:53:07;25.00;61.10
62575;DHT22;53112;45.602;11.904;2022-07-29T04:55:33;25.20;60.20
62575;DHT22;53112;45.602;11.904;2022-07-29T04:57:59;25.50;59.70
62575;DHT22;53112;45.602;11.904;2022-07-29T05:00:26;25.70;59.80
62575;DHT22;53112;45.602;11.904;2022-07-29T05:02:51;25.50;59.60
62575;DHT22;53112;45.602;11.904;2022-07-29T05:05:17;25.50;60.40
62575;DHT22;53112;45.602;11.904;2022-07-29T05:07:43;25.60;59.90
62575;DHT22;53112;45.602;11.904;2022-07-29T05:10:09;25.70;58.80
62575;DHT22;53112;45.602;11.904;2022-07-29T05:12:35;25.80;59.10
62575;DHT22;53112;45.602;11.904;2022-07-29T05:15:01;25.90;58.80
62575;DHT22;53112;45.602;11.904;2022-07-29T05:17:27;26.10;58.60
62575;DHT22;53112;45.602;11.904;2022-07-29T05:19:53;26.20;57.90
62575;DHT22;53112;45.602;11.904;2022-07-29T05:22:20;26.40;57.10
62575;DHT22;53112;45.602;11.904;2022-07-29T05:24:46;26.60;56.50
62575;DHT22;53112;45.602;11.904;2022-07-29T05:27:13;26.70;56.10
62575;DHT22;53112;45.602;11.904;2022-07-29T05:29:39;26.90;56.20
62575;DHT22;53112;45.602;11.904;2022-07-29T05:32:05;26.90;56.60
62575;DHT22;53112;45.602;11.904;2022-07-29T05:34:31;27.10;55.70
62575;DHT22;53112;45.602;11.904;2022-07-29T05:36:57;27.20;55.10
62575;DHT22;53112;45.602;11.904;2022-07-29T05:39:24;27.30;54.70
62575;DHT22;53112;45.602;11.904;2022-07-29T05:41:50;27.30;55.10
62575;DHT22;53112;45.602;11.904;2022-07-29T05:44:16;27.50;55.90
62575;DHT22;53112;45.602;11.904;2022-07-29T05:46:41;27.60;54.30
62575;DHT22;53112;45.602;11.904;2022-07-29T05:49:08;27.70;54.50
62575;DHT22;53112;45.602;11.904;2022-07-29T05:51:34;27.60;54.90
62575;DHT22;53112;45.602;11.904;2022-07-29T05:54:00;27.80;54.50
62575;DHT22;53112;45.602;11.904;2022-07-29T05:56:26;28.00;54.10
62575;DHT22;53112;45.602;11.904;2022-07-29T05:58:52;28.30;52.60
62575;DHT22;53112;45.602;11.904;2022-07-29T06:01:18;28.40;52.40
62575;DHT22;53112;45.602;11.904;2022-07-29T06:03:44;28.40;51.90
62575;DHT22;53112;45.602;11.904;2022-07-29T06:06:11;28.20;51.90
62575;DHT22;53112;45.602;11.904;2022-07-29T06:08:37;28.40;51.10
62575;DHT22;53112;45.602;11.904;2022-07-29T06:11:04;28.60;50.80
62575;DHT22;53112;45.602;11.904;2022-07-29T06:13:30;29.00;50.40
62575;DHT22;53112;45.602;11.904;2022-07-29T06:15:56;29.10;49.50
62575;DHT22;53112;45.602;11.904;2022-07-29T06:18:22;29.10;49.40
62575;DHT22;53112;45.602;11.904;2022-07-29T06:20:50;29.30;49.10
62575;DHT22;53112;45.602;11.904;2022-07-29T06:23:17;29.40;48.10
62575;DHT22;53112;45.602;11.904;2022-07-29T06:25:43;29.70;48.40
62575;DHT22;53112;45.602;11.904;2022-07-29T06:28:09;30.10;47.10
62575;DHT22;53112;45.602;11.904;2022-07-29T06:30:35;30.10;46.80
62575;DHT22;53112;45.602;11.904;2022-07-29T06:33:01;30.30;46.50
62575;DHT22;53112;45.602;11.904;2022-07-29T06:35:28;30.40;43.40
62575;DHT22;53112;45.602;11.904;2022-07-29T06:37:54;30.40;44.20
62575;DHT22;53112;45.602;11.904;2022-07-29T06:40:20;30.50;44.00
62575;DHT22;53112;45.602;11.904;2022-07-29T06:43:04;30.80;44.10
62575;DHT22;53112;45.602;11.904;2022-07-29T06:45:33;31.00;43.40
62575;DHT22;53112;45.602;11.904;2022-07-29T06:48:00;30.90;43.00
62575;DHT22;53112;45.602;11.904;2022-07-29T06:50:26;31.10;43.00
62575;DHT22;53112;45.602;11.904;2022-07-29T06:52:52;31.30;41.80
62575;DHT22;53112;45.602;11.904;2022-07-29T06:55:18;31.30;41.30
62575;DHT22;53112;45.602;11.904;2022-07-29T06:57:45;32.00;40.90
62575;DHT22;53112;45.602;11.904;2022-07-29T07:00:12;31.90;41.20
62575;DHT22;53112;45.602;11.904;2022-07-29T07:02:39;32.50;40.60
62575;DHT22;53112;45.602;11.904;2022-07-29T07:05:05;32.60;39.30
62575;DHT22;53112;45.602;11.904;2022-07-29T07:07:31;32.40;39.40
62575;DHT22;53112;45.602;11.904;2022-07-29T07:09:57;32.60;39.70
62575;DHT22;53112;45.602;11.904;2022-07-29T07:12:23;32.90;38.90
62575;DHT22;53112;45.602;11.904;2022-07-29T07:14:49;33.00;39.20
62575;DHT22;53112;45.602;11.904;2022-07-29T07:17:15;33.30;39.10
62575;DHT22;53112;45.602;11.904;2022-07-29T07:19:41;33.80;38.20
62575;DHT22;53112;45.602;11.904;2022-07-29T07:22:06;34.10;37.10
62575;DHT22;53112;45.602;11.904;2022-07-29T07:24:32;34.10;37.30
62575;DHT22;53112;45.602;11.904;2022-07-29T07:26:58;34.30;37.20
62575;DHT22;53112;45.602;11.904;2022-07-29T07:29:24;34.30;36.70
62575;DHT22;53112;45.602;11.904;2022-07-29T07:31:50;34.50;36.00
62575;DHT22;53112;45.602;11.904;2022-07-29T07:34:16;34.40;36.00
62575;DHT22;53112;45.602;11.904;2022-07-29T07:36:42;34.60;35.80
62575;DHT22;53112;45.602;11.904;2022-07-29T07:39:08;34.40;34.60
62575;DHT22;53112;45.602;11.904;2022-07-29T07:41:34;34.10;36.10
62575;DHT22;53112;45.602;11.904;2022-07-29T07:44:00;34.30;35.30
62575;DHT22;53112;45.602;11.904;2022-07-29T07:46:26;34.00;35.00
62575;DHT22;53112;45.602;11.904;2022-07-29T07:48:52;33.80;34.90
62575;DHT22;53112;45.602;11.904;2022-07-29T07:51:18;34.50;35.30
62575;DHT22;53112;45.602;11.904;2022-07-29T07:53:44;35.20;34.00
62575;DHT22;53112;45.602;11.904;2022-07-29T07:56:10;35.70;33.40
62575;DHT22;53112;45.602;11.904;2022-07-29T07:58:36;36.10;32.60
62575;DHT22;53112;45.602;11.904;2022-07-29T08:01:02;35.80;32.20
62575;DHT22;53112;45.602;11.904;2022-07-29T08:03:28;36.10;32.10
62575;DHT22;53112;45.602;11.904;2022-07-29T08:05:54;36.00;31.90
62575;DHT22;53112;45.602;11.904;2022-07-29T08:08:20;36.20;31.70
62575;DHT22;53112;45.602;11.904;2022-07-29T08:10:46;36.30;31.70
62575;DHT22;53112;45.602;11.904;2022-07-29T08:13:20;37.10;30.50
62575;DHT22;53112;45.602;11.904;2022-07-29T08:15:47;37.70;29.70
62575;DHT22;53112;45.602;11.904;2022-07-29T08:18:23;38.00;28.10
62575;DHT22;53112;45.602;11.904;2022-07-29T08:20:50;38.60;27.90
62575;DHT22;53112;45.602;11.904;2022-07-29T08:23:16;38.90;27.60
62575;DHT22;53112;45.602;11.904;2022-07-29T08:25:44;39.30;27.10
62575;DHT22;53112;45.602;11.904;2022-07-29T08:28:10;39.60;25.90
62575;DHT22;53112;45.602;11.904;2022-07-29T08:30:36;39.80;26.20
62575;DHT22;53112;45.602;11.904;2022-07-29T08:33:02;40.10;25.90
62575;DHT22;53112;45.602;11.904;2022-07-29T08:35:28;40.30;25.80
62575;DHT22;53112;45.602;11.904;2022-07-29T08:37:54;40.10;26.20
62575;DHT22;53112;45.602;11.904;2022-07-29T08:40:21;39.70;26.10
62575;DHT22;53112;45.602;11.904;2022-07-29T08:42:49;39.50;26.60
62575;DHT22;53112;45.602;11.904;2022-07-29T08:45:15;39.70;26.40
62575;DHT22;53112;45.602;11.904;2022-07-29T08:47:44;39.90;26.20
62575;DHT22;53112;45.602;11.904;2022-07-29T08:50:11;39.80;26.20
62575;DHT22;53112;45.602;11.904;2022-07-29T08:52:39;40.00;26.00
62575;DHT22;53112;45.602;11.904;2022-07-29T08:55:07;40.00;26.30
62575;DHT22;53112;45.602;11.904;2022-07-29T08:57:35;40.10;25.80
62575;DHT22;53112;45.602;11.904;2022-07-29T09:00:04;40.30;26.10
62575;DHT22;53112;45.602;11.904;2022-07-29T09:02:39;39.90;26.00
62575;DHT22;53112;45.602;11.904;2022-07-29T09:05:06;39.80;26.10
62575;DHT22;53112;45.602;11.904;2022-07-29T09:07:33;40.30;25.80
62575;DHT22;53112;45.602;11.904;2022-07-29T09:10:01;40.80;24.40
62575;DHT22;53112;45.602;11.904;2022-07-29T09:12:28;40.90;25.00
62575;DHT22;53112;45.602;11.904;2022-07-29T09:14:54;42.00;24.10
62575;DHT22;53112;45.602;11.904;2022-07-29T09:17:44;42.40;23.50
62575;DHT22;53112;45.602;11.904;2022-07-29T09:20:19;41.80;22.70
62575;DHT22;53112;45.602;11.904;2022-07-29T09:22:47;40.20;24.00
62575;DHT22;53112;45.602;11.904;2022-07-29T09:25:35;41.50;23.60
62575;DHT22;53112;45.602;11.904;2022-07-29T09:28:09;42.00;23.20
62575;DHT22;53112;45.602;11.904;2022-07-29T09:30:53;42.10;22.70
62575;DHT22;53112;45.602;11.904;2022-07-29T09:33:21;41.70;23.30
62575;DHT22;53112;45.602;11.904;2022-07-29T09:36:00;42.20;23.10
62575;DHT22;53112;45.602;11.904;2022-07-29T09:38:28;43.00;22.20
62575;DHT22;53112;45.602;11.904;2022-07-29T09:40:59;44.00;21.40
62575;DHT22;53112;45.602;11.904;2022-07-29T09:43:25;43.40;21.60
62575;DHT22;53112;45.602;11.904;2022-07-29T09:45:51;43.40;21.00
62575;DHT22;53112;45.602;11.904;2022-07-29T09:48:22;40.50;23.40
62575;DHT22;53112;45.602;11.904;2022-07-29T09:50:49;39.60;24.40
62575;DHT22;53112;45.602;11.904;2022-07-29T09:53:35;39.60;23.80
62575;DHT22;53112;45.602;11.904;2022-07-29T09:56:02;40.60;23.10
62575;DHT22;53112;45.602;11.904;2022-07-29T09:58:28;42.50;21.40
62575;DHT22;53112;45.602;11.904;2022-07-29T10:00:57;41.30;22.50
62575;DHT22;53112;45.602;11.904;2022-07-29T10:03:23;43.60;21.00
62575;DHT22;53112;45.602;11.904;2022-07-29T10:06:09;44.60;20.10
62575;DHT22;53112;45.602;11.904;2022-07-29T10:08:36;45.70;18.80
62575;DHT22;53112;45.602;11.904;2022-07-29T10:13:36;44.00;19.60
62575;DHT22;53112;45.602;11.904;2022-07-29T10:16:02;44.20;20.10
62575;DHT22;53112;45.602;11.904;2022-07-29T10:18:28;45.50;20.00
62575;DHT22;53112;45.602;11.904;2022-07-29T10:20:56;45.20;19.50
62575;DHT22;53112;45.602;11.904;2022-07-29T10:23:23;45.20;20.20
62575;DHT22;53112;45.602;11.904;2022-07-29T10:25:49;45.80;19.30
62575;DHT22;53112;45.602;11.904;2022-07-29T10:28:16;46.60;19.10
62575;DHT22;53112;45.602;11.904;2022-07-29T10:30:42;46.50;18.20
62575;DHT22;53112;45.602;11.904;2022-07-29T10:44:37;47.50;17.50
62575;DHT22;53112;45.602;11.904;2022-07-29T10:46:45;48.20;17.10
62575;DHT22;53112;45.602;11.904;2022-07-29T10:49:25;48.60;16.50
62575;DHT22;53112;45.602;11.904;2022-07-29T10:57:22;49.90;16.00
62575;DHT22;53112;45.602;11.904;2022-07-29T11:05:06;47.00;17.90
62575;DHT22;53112;45.602;11.904;2022-07-29T11:07:35;47.40;18.00
62575;DHT22;53112;45.602;11.904;2022-07-29T11:15:10;44.30;20.10
62575;DHT22;53112;45.602;11.904;2022-07-29T11:20:44;47.60;17.80
62575;DHT22;53112;45.602;11.904;2022-07-29T11:29:20;48.80;16.90
62575;DHT22;53112;45.602;11.904;2022-07-29T11:31:50;48.80;16.40
62575;DHT22;53112;45.602;11.904;2022-07-29T11:34:32;50.20;15.50
62575;DHT22;53112;45.602;11.904;2022-07-29T11:39:40;51.50;15.10
62575;DHT22;53112;45.602;11.904;2022-07-29T11:47:37;52.50;14.80
62575;DHT22;53112;45.602;11.904;2022-07-29T11:50:05;51.80;14.50
62575;DHT22;53112;45.602;11.904;2022-07-29T11:52:39;49.50;14.90
62575;DHT22;53112;45.602;11.904;2022-07-29T11:55:11;48.80;15.70
62575;DHT22;53112;45.602;11.904;2022-07-29T11:57:54;49.50;15.10
62575;DHT22;53112;45.602;11.904;2022-07-29T12:00:24;47.90;15.70
62575;DHT22;53112;45.602;11.904;2022-07-29T12:02:51;48.30;15.80
62575;DHT22;53112;45.602;11.904;2022-07-29T12:05:17;45.70;17.20
62575;DHT22;53112;45.602;11.904;2022-07-29T12:07:44;46.20;17.20
62575;DHT22;53112;45.602;11.904;2022-07-29T12:10:10;47.00;16.50
62575;DHT22;53112;45.602;11.904;2022-07-29T12:12:36;46.00;17.20
62575;DHT22;53112;45.602;11.904;2022-07-29T12:15:16;45.80;17.20
62575;DHT22;53112;45.602;11.904;2022-07-29T12:17:47;45.80;17.50
62575;DHT22;53112;45.602;11.904;2022-07-29T12:20:26;45.80;17.10
62575;DHT22;53112;45.602;11.904;2022-07-29T12:22:52;48.10;16.10
62575;DHT22;53112;45.602;11.904;2022-07-29T12:25:21;49.70;15.40
62575;DHT22;53112;45.602;11.904;2022-07-29T12:27:58;51.30;14.70
62575;DHT22;53112;45.602;11.904;2022-07-29T12:30:39;51.90;14.20
62575;DHT22;53112;45.602;11.904;2022-07-29T12:33:16;50.00;14.70
62575;DHT22;53112;45.602;11.904;2022-07-29T12:35:46;50.40;14.70
62575;DHT22;53112;45.602;11.904;2022-07-29T12:38:13;51.70;14.50
62575;DHT22;53112;45.602;11.904;2022-07-29T12:40:40;52.10;14.00
62575;DHT22;53112;45.602;11.904;2022-07-29T12:43:12;51.40;13.90
62575;DHT22;53112;45.602;11.904;2022-07-29T12:45:41;49.00;15.10
62575;DHT22;53112;45.602;11.904;2022-07-29T12:48:09;51.00;14.70
62575;DHT22;53112;45.602;11.904;2022-07-29T12:50:57;51.00;14.50
62575;DHT22;53112;45.602;11.904;2022-07-29T12:53:23;51.70;14.30
62575;DHT22;53112;45.602;11.904;2022-07-29T12:55:51;52.10;14.00
62575;DHT22;53112;45.602;11.904;2022-07-29T12:58:38;51.50;14.10
62575;DHT22;53112;45.602;11.904;2022-07-29T13:01:10;50.20;14.80
62575;DHT22;53112;45.602;11.904;2022-07-29T13:03:53;50.60;14.80
62575;DHT22;53112;45.602;11.904;2022-07-29T13:06:34;52.00;13.80
62575;DHT22;53112;45.602;11.904;2022-07-29T13:09:14;52.20;13.80
62575;DHT22;53112;45.602;11.904;2022-07-29T13:17:09;51.30;14.30
62575;DHT22;53112;45.602;11.904;2022-07-29T13:19:46;49.40;15.40
62575;DHT22;53112;45.602;11.904;2022-07-29T13:22:23;49.10;15.30
62575;DHT22;53112;45.602;11.904;2022-07-29T13:24:53;47.70;16.10
62575;DHT22;53112;45.602;11.904;2022-07-29T13:27:26;49.30;15.40
62575;DHT22;53112;45.602;11.904;2022-07-29T13:29:53;49.50;14.70
62575;DHT22;53112;45.602;11.904;2022-07-29T13:32:22;48.50;15.30
62575;DHT22;53112;45.602;11.904;2022-07-29T13:34:49;47.70;16.20
62575;DHT22;53112;45.602;11.904;2022-07-29T13:37:15;48.80;15.50
62575;DHT22;53112;45.602;11.904;2022-07-29T13:39:42;49.30;15.20
62575;DHT22;53112;45.602;11.904;2022-07-29T13:42:08;48.90;15.40
62575;DHT22;53112;45.602;11.904;2022-07-29T13:44:35;46.50;16.60
62575;DHT22;53112;45.602;11.904;2022-07-29T13:47:02;45.40;17.60
62575;DHT22;53112;45.602;11.904;2022-07-29T13:49:28;45.90;17.40
62575;DHT22;53112;45.602;11.904;2022-07-29T13:51:54;48.10;16.20
62575;DHT22;53112;45.602;11.904;2022-07-29T13:54:19;48.90;15.30
62575;DHT22;53112;45.602;11.904;2022-07-29T13:56:46;47.70;16.30
62575;DHT22;53112;45.602;11.904;2022-07-29T13:59:12;47.70;16.30
62575;DHT22;53112;45.602;11.904;2022-07-29T14:01:38;46.70;17.30
62575;DHT22;53112;45.602;11.904;2022-07-29T14:04:08;47.90;16.50
62575;DHT22;53112;45.602;11.904;2022-07-29T14:06:37;47.50;16.40
62575;DHT22;53112;45.602;11.904;2022-07-29T14:09:04;48.30;16.20
62575;DHT22;53112;45.602;11.904;2022-07-29T14:11:34;48.10;16.00
62575;DHT22;53112;45.602;11.904;2022-07-29T14:14:01;47.70;16.40
62575;DHT22;53112;45.602;11.904;2022-07-29T14:16:27;46.40;17.10
62575;DHT22;53112;45.602;11.904;2022-07-29T14:18:52;46.30;17.10
62575;DHT22;53112;45.602;11.904;2022-07-29T14:21:18;45.50;17.80
62575;DHT22;53112;45.602;11.904;2022-07-29T14:23:44;46.00;17.60
62575;DHT22;53112;45.602;11.904;2022-07-29T14:26:10;45.90;17.50
62575;DHT22;53112;45.602;11.904;2022-07-29T14:28:36;47.10;16.80
62575;DHT22;53112;45.602;11.904;2022-07-29T14:31:03;47.30;16.30
62575;DHT22;53112;45.602;11.904;2022-07-29T14:33:29;47.80;16.30
62575;DHT22;53112;45.602;11.904;2022-07-29T14:35:55;47.00;16.80
62575;DHT22;53112;45.602;11.904;2022-07-29T14:38:20;47.70;16.60
62575;DHT22;53112;45.602;11.904;2022-07-29T14:40:46;47.40;16.70
62575;DHT22;53112;45.602;11.904;2022-07-29T14:43:13;46.80;16.90
62575;DHT22;53112;45.602;11.904;2022-07-29T14:45:40;47.10;16.60
62575;DHT22;53112;45.602;11.904;2022-07-29T14:48:06;46.20;16.90
62575;DHT22;53112;45.602;11.904;2022-07-29T14:50:32;46.30;17.30
62575;DHT22;53112;45.602;11.904;2022-07-29T14:52:59;45.90;17.50
62575;DHT22;53112;45.602;11.904;2022-07-29T14:55:26;45.50;17.60
62575;DHT22;53112;45.602;11.904;2022-07-29T14:57:52;45.30;18.10
62575;DHT22;53112;45.602;11.904;2022-07-29T15:00:18;44.90;18.30
62575;DHT22;53112;45.602;11.904;2022-07-29T15:02:44;44.80;18.40
62575;DHT22;53112;45.602;11.904;2022-07-29T15:05:10;44.20;19.60
62575;DHT22;53112;45.602;11.904;2022-07-29T15:07:36;44.20;19.60
62575;DHT22;53112;45.602;11.904;2022-07-29T15:10:03;43.70;20.40
62575;DHT22;53112;45.602;11.904;2022-07-29T15:12:31;43.50;21.10
62575;DHT22;53112;45.602;11.904;2022-07-29T15:14:57;43.00;21.80
62575;DHT22;53112;45.602;11.904;2022-07-29T15:17:23;42.30;22.80
62575;DHT22;53112;45.602;11.904;2022-07-29T15:19:49;41.50;23.80
62575;DHT22;53112;45.602;11.904;2022-07-29T15:22:15;41.10;24.70
62575;DHT22;53112;45.602;11.904;2022-07-29T15:24:41;40.70;25.10
62575;DHT22;53112;45.602;11.904;2022-07-29T15:27:06;40.30;25.70
62575;DHT22;53112;45.602;11.904;2022-07-29T15:29:32;40.20;25.90
62575;DHT22;53112;45.602;11.904;2022-07-29T15:31:59;40.40;25.60
62575;DHT22;53112;45.602;11.904;2022-07-29T15:34:24;40.20;25.70
62575;DHT22;53112;45.602;11.904;2022-07-29T15:36:51;39.70;26.30
62575;DHT22;53112;45.602;11.904;2022-07-29T15:39:17;39.30;26.40
62575;DHT22;53112;45.602;11.904;2022-07-29T15:41:44;39.00;26.90
62575;DHT22;53112;45.602;11.904;2022-07-29T15:44:10;39.10;26.70
62575;DHT22;53112;45.602;11.904;2022-07-29T15:46:36;38.90;26.80
62575;DHT22;53112;45.602;11.904;2022-07-29T15:49:25;38.80;26.90
62575;DHT22;53112;45.602;11.904;2022-07-29T15:52:02;38.60;27.20
62575;DHT22;53112;45.602;11.904;2022-07-29T15:54:29;38.60;27.70
62575;DHT22;53112;45.602;11.904;2022-07-29T15:56:55;38.20;28.40
62575;DHT22;53112;45.602;11.904;2022-07-29T15:59:22;38.00;28.40
62575;DHT22;53112;45.602;11.904;2022-07-29T16:01:48;37.70;28.50
62575;DHT22;53112;45.602;11.904;2022-07-29T16:04:14;37.60;28.30
62575;DHT22;53112;45.602;11.904;2022-07-29T16:06:40;37.60;28.40
62575;DHT22;53112;45.602;11.904;2022-07-29T16:09:06;37.70;28.30
62575;DHT22;53112;45.602;11.904;2022-07-29T16:11:32;37.70;28.30
62575;DHT22;53112;45.602;11.904;2022-07-29T16:13:58;37.80;27.80
62575;DHT22;53112;45.602;11.904;2022-07-29T16:16:24;37.80;27.90
62575;DHT22;53112;45.602;11.904;2022-07-29T16:18:50;37.80;27.80
62575;DHT22;53112;45.602;11.904;2022-07-29T16:21:17;37.70;27.90
62575;DHT22;53112;45.602;11.904;2022-07-29T16:23:42;37.80;27.90
62575;DHT22;53112;45.602;11.904;2022-07-29T16:26:08;37.90;27.80
62575;DHT22;53112;45.602;11.904;2022-07-29T16:28:34;37.80;27.90
62575;DHT22;53112;45.602;11.904;2022-07-29T16:31:00;37.80;28.30
62575;DHT22;53112;45.602;11.904;2022-07-29T16:33:26;37.70;28.20
62575;DHT22;53112;45.602;11.904;2022-07-29T16:35:53;37.90;28.00